sensor_id;sensor_type;location;lat;lon;timestamp;pressure;altitude;pressure_sealevel;temperature;humidity
22755;BME280;11544;42.020;23.094;2023-02-20T00:02:05;97453.84;;;9.87;68.09
22755;BME280;11544;42.020;23.094;2023-02-20T00:05:15;97449.91;;;10.03;67.52
22755;BME280;11544;42.020;23.094;2023-02-20T00:35:51;97479.66;;;10.26;65.49
22755;BME280;11544;42.020;23.094;2023-02-20T00:38:18;97476.34;;;10.21;64.81
22755;BME280;11544;42.020;23.094;2023-02-20T00:40:55;97488.59;;;10.17;65.10
22755;BME280;11544;42.020;23.094;2023-02-20T00:43:24;97491.06;;;10.22;65.27
22755;BME280;11544;42.020;23.094;2023-02-20T00:45:52;97489.44;;;10.17;65.15
22755;BME280;11544;42.020;23.094;2023-02-20T00:48:23;97501.22;;;10.32;64.62
22755;BME280;11544;42.020;23.094;2023-02-20T00:50:55;97497.13;;;10.22;64.61
22755;BME280;11544;42.020;23.094;2023-02-20T01:28:29;97471.41;;;10.11;65.84
22755;BME280;11544;42.020;23.094;2023-02-20T01:30:59;97475.78;;;10.09;65.41
22755;BME280;11544;42.020;23.094;2023-02-20T01:33:29;97471.25;;;10.16;65.39
22755;BME280;11544;42.020;23.094;2023-02-20T01:36:01;97469.59;;;10.13;65.33
22755;BME280;11544;42.020;23.094;2023-02-20T01:38:41;97469.88;;;10.04;65.66
22755;BME280;11544;42.020;23.094;2023-02-20T01:41:35;97484.84;;;9.96;65.85
22755;BME280;11544;42.020;23.094;2023-02-20T01:44:30;97493.59;;;9.93;66.88
22755;BME280;11544;42.020;23.094;2023-02-20T01:47:20;97508.06;;;10.04;66.77
22755;BME280;11544;42.020;23.094;2023-02-20T01:53:40;97511.50;;;9.74;67.00
22755;BME280;11544;42.020;23.094;2023-02-20T01:56:10;97515.31;;;9.28;68.78
22755;BME280;11544;42.020;23.094;2023-02-20T01:58:44;97521.81;;;9.10;69.68
22755;BME280;11544;42.020;23.094;2023-02-20T02:01:13;97525.25;;;8.75;70.97
22755;BME280;11544;42.020;23.094;2023-02-20T02:03:42;97526.47;;;8.60;72.88
22755;BME280;11544;42.020;23.094;2023-02-20T02:06:12;97530.66;;;8.66;73.83
22755;BME280;11544;42.020;23.094;2023-02-20T02:08:43;97522.69;;;8.74;73.77
22755;BME280;11544;42.020;23.094;2023-02-20T02:11:18;97515.94;;;9.02;73.16
22755;BME280;11544;42.020;23.094;2023-02-20T02:13:49;97512.34;;;8.72;72.97
22755;BME280;11544;42.020;23.094;2023-02-20T02:16:36;97527.31;;;8.62;74.45
22755;BME280;11544;42.020;23.094;2023-02-20T02:22:22;97531.09;;;8.85;74.01
22755;BME280;11544;42.020;23.094;2023-02-20T02:27:48;97532.84;;;8.45;74.34
22755;BME280;11544;42.020;23.094;2023-02-20T02:36:41;97547.56;;;8.46;77.61
22755;BME280;11544;42.020;23.094;2023-02-20T02:42:29;97563.44;;;8.73;76.36
22755;BME280;11544;42.020;23.094;2023-02-20T02:52:29;97568.63;;;9.12;74.39
22755;BME280;11544;42.020;23.094;2023-02-20T02:55:08;97591.34;;;8.65;75.96
22755;BME280;11544;42.020;23.094;2023-02-20T02:57:38;97598.38;;;8.60;77.03
22755;BME280;11544;42.020;23.094;2023-02-20T03:00:38;97601.53;;;8.74;77.75
22755;BME280;11544;42.020;23.094;2023-02-20T03:03:25;97598.69;;;8.85;77.37
22755;BME280;11544;42.020;23.094;2023-02-20T03:06:11;97601.88;;;8.98;76.52
22755;BME280;11544;42.020;23.094;2023-02-20T03:08:59;97603.59;;;8.99;76.42
22755;BME280;11544;42.020;23.094;2023-02-20T03:11:40;97617.63;;;8.90;76.97
22755;BME280;11544;42.020;23.094;2023-02-20T03:14:27;97620.50;;;8.79;76.93
22755;BME280;11544;42.020;23.094;2023-02-20T03:17:29;97620.00;;;9.01;76.73
22755;BME280;11544;42.020;23.094;2023-02-20T03:25:39;97633.44;;;9.21;75.40
22755;BME280;11544;42.020;23.094;2023-02-20T03:28:22;97627.38;;;8.82;76.72
22755;BME280;11544;42.020;23.094;2023-02-20T03:31:02;97639.25;;;8.53;78.42
22755;BME280;11544;42.020;23.094;2023-02-20T03:33:39;97650.28;;;8.18;80.99
22755;BME280;11544;42.020;23.094;2023-02-20T03:36:54;97661.00;;;7.99;82.85
22755;BME280;11544;42.020;23.094;2023-02-20T03:39:53;97685.81;;;8.16;83.55
22755;BME280;11544;42.020;23.094;2023-02-20T03:42:47;97680.56;;;8.19;83.94
22755;BME280;11544;42.020;23.094;2023-02-20T03:45:37;97683.63;;;8.41;83.50
22755;BME280;11544;42.020;23.094;2023-02-20T03:48:13;97682.06;;;8.31;83.77
22755;BME280;11544;42.020;23.094;2023-02-20T03:50:47;97691.53;;;8.35;82.81
22755;BME280;11544;42.020;23.094;2023-02-20T03:53:34;97694.91;;;8.40;83.17
22755;BME280;11544;42.020;23.094;2023-02-20T03:56:15;97693.16;;;8.42;84.71
22755;BME280;11544;42.020;23.094;2023-02-20T03:58:53;97691.22;;;8.52;84.30
22755;BME280;11544;42.020;23.094;2023-02-20T04:01:24;97686.72;;;9.02;84.04
22755;BME280;11544;42.020;23.094;2023-02-20T04:03:55;97690.88;;;9.10;82.90
22755;BME280;11544;42.020;23.094;2023-02-20T04:06:43;97686.88;;;9.35;82.88
22755;BME280;11544;42.020;23.094;2023-02-20T04:09:24;97689.53;;;9.33;81.88
22755;BME280;11544;42.020;23.094;2023-02-20T04:12:00;97697.44;;;9.28;82.81
22755;BME280;11544;42.020;23.094;2023-02-20T04:14:32;97690.22;;;9.40;82.61
22755;BME280;11544;42.020;23.094;2023-02-20T04:17:06;97703.97;;;9.45;82.54
22755;BME280;11544;42.020;23.094;2023-02-20T04:19:37;97710.00;;;9.47;81.93
22755;BME280;11544;42.020;23.094;2023-02-20T04:22:08;97721.50;;;9.38;82.19
22755;BME280;11544;42.020;23.094;2023-02-20T04:24:42;97723.38;;;9.30;82.48
22755;BME280;11544;42.020;23.094;2023-02-20T04:27:11;97725.03;;;9.36;82.82
22755;BME280;11544;42.020;23.094;2023-02-20T04:29:39;97723.84;;;9.49;81.97
22755;BME280;11544;42.020;23.094;2023-02-20T04:32:06;97726.50;;;9.47;81.10
22755;BME280;11544;42.020;23.094;2023-02-20T04:34:33;97727.28;;;9.49;81.61
22755;BME280;11544;42.020;23.094;2023-02-20T04:37:09;97737.66;;;9.51;81.44
22755;BME280;11544;42.020;23.094;2023-02-20T04:39:40;97739.25;;;9.57;81.63
22755;BME280;11544;42.020;23.094;2023-02-20T04:42:09;97730.50;;;9.61;81.57
22755;BME280;11544;42.020;23.094;2023-02-20T04:44:46;97726.41;;;9.50;81.18
22755;BME280;11544;42.020;23.094;2023-02-20T04:47:17;97731.91;;;9.38;81.42
22755;BME280;11544;42.020;23.094;2023-02-20T04:49:45;97736.41;;;9.30;82.65
22755;BME280;11544;42.020;23.094;2023-02-20T04:52:15;97732.09;;;9.29;83.26
22755;BME280;11544;42.020;23.094;2023-02-20T04:54:47;97736.19;;;9.41;82.68
22755;BME280;11544;42.020;23.094;2023-02-20T04:57:18;97738.78;;;9.41;82.14
22755;BME280;11544;42.020;23.094;2023-02-20T04:59:48;97743.19;;;9.37;82.26
22755;BME280;11544;42.020;23.094;2023-02-20T05:02:18;97741.56;;;9.31;82.15
22755;BME280;11544;42.020;23.094;2023-02-20T05:04:45;97744.84;;;9.40;82.50
22755;BME280;11544;42.020;23.094;2023-02-20T05:07:12;97743.69;;;9.54;81.59
22755;BME280;11544;42.020;23.094;2023-02-20T05:18:58;97762.22;;;9.39;81.91
22755;BME280;11544;42.020;23.094;2023-02-20T05:21:33;97775.63;;;9.21;82.84
22755;BME280;11544;42.020;23.094;2023-02-20T05:24:36;97775.56;;;9.24;82.51
22755;BME280;11544;42.020;23.094;2023-02-20T05:27:12;97773.66;;;9.30;82.80
22755;BME280;11544;42.020;23.094;2023-02-20T05:29:48;97792.63;;;9.37;82.32
22755;BME280;11544;42.020;23.094;2023-02-20T05:32:16;97804.50;;;9.08;83.04
22755;BME280;11544;42.020;23.094;2023-02-20T05:34:43;97809.78;;;9.04;84.08
22755;BME280;11544;42.020;23.094;2023-02-20T05:37:11;97819.09;;;9.16;83.98
22755;BME280;11544;42.020;23.094;2023-02-20T05:39:39;97819.66;;;9.30;82.55
22755;BME280;11544;42.020;23.094;2023-02-20T05:42:27;97820.28;;;9.43;81.74
22755;BME280;11544;42.020;23.094;2023-02-20T05:45:08;97826.53;;;9.34;81.52
22755;BME280;11544;42.020;23.094;2023-02-20T05:47:38;97832.56;;;9.36;81.23
22755;BME280;11544;42.020;23.094;2023-02-20T05:50:05;97839.94;;;9.56;80.26
22755;BME280;11544;42.020;23.094;2023-02-20T05:52:32;97851.41;;;9.47;79.77
22755;BME280;11544;42.020;23.094;2023-02-20T05:55:02;97859.63;;;9.68;79.94
22755;BME280;11544;42.020;23.094;2023-02-20T05:57:32;97855.91;;;9.80;77.47
22755;BME280;11544;42.020;23.094;2023-02-20T05:59:59;97854.59;;;11.68;71.11
22755;BME280;11544;42.020;23.094;2023-02-20T06:02:32;97861.44;;;12.29;65.61
22755;BME280;11544;42.020;23.094;2023-02-20T06:05:00;97861.47;;;12.81;61.77
22755;BME280;11544;42.020;23.094;2023-02-20T06:07:26;97873.41;;;12.90;61.09
22755;BME280;11544;42.020;23.094;2023-02-20T06:09:53;97872.94;;;12.50;61.71
22755;BME280;11544;42.020;23.094;2023-02-20T06:12:26;97883.63;;;13.93;77.38
22755;BME280;11544;42.020;23.094;2023-02-20T06:14:53;97881.09;;;12.95;64.36
22755;BME280;11544;42.020;23.094;2023-02-20T06:17:21;97874.41;;;12.59;61.22
22755;BME280;11544;42.020;23.094;2023-02-20T06:19:49;97873.00;;;12.49;61.34
22755;BME280;11544;42.020;23.094;2023-02-20T06:22:17;97867.88;;;12.98;59.82
22755;BME280;11544;42.020;23.094;2023-02-20T06:24:45;97868.38;;;12.57;58.46
22755;BME280;11544;42.020;23.094;2023-02-20T06:27:14;97872.59;;;12.61;59.36
22755;BME280;11544;42.020;23.094;2023-02-20T06:29:41;97876.81;;;12.39;57.97
22755;BME280;11544;42.020;23.094;2023-02-20T06:32:08;97867.19;;;12.66;57.38
22755;BME280;11544;42.020;23.094;2023-02-20T06:34:35;97861.59;;;13.28;55.61
22755;BME280;11544;42.020;23.094;2023-02-20T06:37:03;97863.38;;;13.01;55.49
22755;BME280;11544;42.020;23.094;2023-02-20T06:39:35;97862.47;;;13.52;53.99
22755;BME280;11544;42.020;23.094;2023-02-20T06:42:07;97858.19;;;13.25;53.92
22755;BME280;11544;42.020;23.094;2023-02-20T06:44:34;97856.81;;;12.64;55.26
22755;BME280;11544;42.020;23.094;2023-02-20T06:47:01;97859.84;;;12.77;55.99
22755;BME280;11544;42.020;23.094;2023-02-20T06:49:38;97851.06;;;13.05;55.05
22755;BME280;11544;42.020;23.094;2023-02-20T06:52:05;97841.97;;;13.15;54.63
22755;BME280;11544;42.020;23.094;2023-02-20T06:54:32;97844.16;;;12.77;55.26
22755;BME280;11544;42.020;23.094;2023-02-20T06:57:00;97850.25;;;12.78;54.63
22755;BME280;11544;42.020;23.094;2023-02-20T06:59:33;97848.50;;;12.52;54.22
22755;BME280;11544;42.020;23.094;2023-02-20T07:02:15;97850.16;;;12.54;55.16
22755;BME280;11544;42.020;23.094;2023-02-20T07:04:46;97860.56;;;12.29;55.29
22755;BME280;11544;42.020;23.094;2023-02-20T07:07:28;97854.50;;;12.55;53.58
22755;BME280;11544;42.020;23.094;2023-02-20T07:09:55;97850.63;;;12.67;53.22
22755;BME280;11544;42.020;23.094;2023-02-20T07:12:22;97847.16;;;12.91;52.81
22755;BME280;11544;42.020;23.094;2023-02-20T07:14:53;97848.28;;;13.09;52.72
22755;BME280;11544;42.020;23.094;2023-02-20T07:17:47;97848.44;;;13.53;52.58
22755;BME280;11544;42.020;23.094;2023-02-20T07:20:16;97840.53;;;13.31;51.03
22755;BME280;11544;42.020;23.094;2023-02-20T07:22:50;97846.41;;;12.88;51.22
22755;BME280;11544;42.020;23.094;2023-02-20T07:25:17;97845.28;;;13.45;51.37
22755;BME280;11544;42.020;23.094;2023-02-20T07:27:44;97836.44;;;13.48;50.04
22755;BME280;11544;42.020;23.094;2023-02-20T07:30:11;97835.09;;;13.38;49.79
22755;BME280;11544;42.020;23.094;2023-02-20T07:32:39;97839.47;;;14.06;48.63
22755;BME280;11544;42.020;23.094;2023-02-20T07:35:06;97842.31;;;14.00;49.29
22755;BME280;11544;42.020;23.094;2023-02-20T07:37:35;97847.41;;;13.81;49.93
22755;BME280;11544;42.020;23.094;2023-02-20T07:40:02;97849.25;;;13.55;49.42
22755;BME280;11544;42.020;23.094;2023-02-20T07:42:29;97849.50;;;13.73;49.03
22755;BME280;11544;42.020;23.094;2023-02-20T07:44:58;97840.06;;;13.67;47.75
22755;BME280;11544;42.020;23.094;2023-02-20T07:47:25;97848.91;;;13.65;46.53
22755;BME280;11544;42.020;23.094;2023-02-20T07:50:26;97836.22;;;13.30;47.01
22755;BME280;11544;42.020;23.094;2023-02-20T07:52:53;97831.88;;;13.53;47.08
22755;BME280;11544;42.020;23.094;2023-02-20T07:55:20;97825.50;;;14.06;46.06
22755;BME280;11544;42.020;23.094;2023-02-20T07:58:08;97822.25;;;14.21;45.71
22755;BME280;11544;42.020;23.094;2023-02-20T08:00:35;97838.34;;;13.90;44.98
22755;BME280;11544;42.020;23.094;2023-02-20T08:03:05;97823.09;;;14.22;44.61
22755;BME280;11544;42.020;23.094;2023-02-20T08:05:35;97827.38;;;13.80;45.17
22755;BME280;11544;42.020;23.094;2023-02-20T08:08:15;97830.78;;;14.26;44.87
22755;BME280;11544;42.020;23.094;2023-02-20T08:11:08;97829.06;;;13.81;44.76
22755;BME280;11544;42.020;23.094;2023-02-20T08:13:36;97824.16;;;13.95;43.67
22755;BME280;11544;42.020;23.094;2023-02-20T08:16:04;97816.94;;;14.45;43.86
22755;BME280;11544;42.020;23.094;2023-02-20T08:18:46;97808.31;;;14.21;43.01
22755;BME280;11544;42.020;23.094;2023-02-20T08:21:18;97817.03;;;13.99;42.85
22755;BME280;11544;42.020;23.094;2023-02-20T08:23:46;97818.00;;;14.18;42.68
22755;BME280;11544;42.020;23.094;2023-02-20T08:26:13;97821.63;;;14.58;42.36
22755;BME280;11544;42.020;23.094;2023-02-20T08:28:40;97817.56;;;13.85;42.58
22755;BME280;11544;42.020;23.094;2023-02-20T08:31:17;97830.13;;;13.99;42.88
22755;BME280;11544;42.020;23.094;2023-02-20T08:33:58;97810.69;;;14.69;41.65
22755;BME280;11544;42.020;23.094;2023-02-20T08:36:25;97828.00;;;15.14;41.29
22755;BME280;11544;42.020;23.094;2023-02-20T08:38:52;97826.88;;;15.20;40.13
22755;BME280;11544;42.020;23.094;2023-02-20T08:41:19;97834.59;;;15.23;39.78
22755;BME280;11544;42.020;23.094;2023-02-20T08:44:13;97845.78;;;14.01;40.81
22755;BME280;11544;42.020;23.094;2023-02-20T08:46:51;97829.19;;;14.44;40.55
22755;BME280;11544;42.020;23.094;2023-02-20T08:49:18;97829.81;;;14.29;40.92
22755;BME280;11544;42.020;23.094;2023-02-20T08:54:32;97825.94;;;14.59;39.96
22755;BME280;11544;42.020;23.094;2023-02-20T08:57:13;97835.69;;;14.13;40.35
22755;BME280;11544;42.020;23.094;2023-02-20T08:59:44;97830.63;;;13.87;40.83
22755;BME280;11544;42.020;23.094;2023-02-20T09:02:17;97832.38;;;14.30;40.42
22755;BME280;11544;42.020;23.094;2023-02-20T09:04:49;97824.25;;;14.58;40.07
22755;BME280;11544;42.020;23.094;2023-02-20T09:07:18;97822.25;;;14.65;39.45
22755;BME280;11544;42.020;23.094;2023-02-20T09:09:45;97816.31;;;14.80;39.41
22755;BME280;11544;42.020;23.094;2023-02-20T09:12:20;97830.63;;;14.73;39.24
22755;BME280;11544;42.020;23.094;2023-02-20T09:15:00;97824.84;;;14.86;39.44
22755;BME280;11544;42.020;23.094;2023-02-20T09:17:28;97812.84;;;15.40;38.62
22755;BME280;11544;42.020;23.094;2023-02-20T09:20:03;97830.31;;;15.41;38.35
22755;BME280;11544;42.020;23.094;2023-02-20T09:25:57;97815.72;;;14.94;38.11
22755;BME280;11544;42.020;23.094;2023-02-20T09:28:24;97819.00;;;15.20;38.13
22755;BME280;11544;42.020;23.094;2023-02-20T09:30:51;97818.81;;;15.04;38.01
22755;BME280;11544;42.020;23.094;2023-02-20T09:33:20;97807.75;;;15.16;37.27
22755;BME280;11544;42.020;23.094;2023-02-20T09:35:48;97822.63;;;14.97;37.69
22755;BME280;11544;42.020;23.094;2023-02-20T09:38:15;97823.66;;;14.93;37.19
22755;BME280;11544;42.020;23.094;2023-02-20T09:40:42;97834.09;;;14.74;38.17
22755;BME280;11544;42.020;23.094;2023-02-20T09:46:25;97828.91;;;14.93;37.34
22755;BME280;11544;42.020;23.094;2023-02-20T09:49:01;97818.09;;;15.00;37.32
22755;BME280;11544;42.020;23.094;2023-02-20T09:51:54;97835.56;;;14.60;37.32
22755;BME280;11544;42.020;23.094;2023-02-20T09:54:28;97827.81;;;14.57;37.96
22755;BME280;11544;42.020;23.094;2023-02-20T09:57:14;97836.53;;;14.14;37.86
22755;BME280;11544;42.020;23.094;2023-02-20T10:00:05;97833.34;;;14.28;37.52
22755;BME280;11544;42.020;23.094;2023-02-20T10:02:38;97839.03;;;14.39;37.62
22755;BME280;11544;42.020;23.094;2023-02-20T10:05:30;97833.97;;;14.97;36.69
22755;BME280;11544;42.020;23.094;2023-02-20T10:07:57;97842.41;;;13.98;37.39
22755;BME280;11544;42.020;23.094;2023-02-20T10:10:32;97849.06;;;13.84;37.83
22755;BME280;11544;42.020;23.094;2023-02-20T10:16:26;97825.59;;;14.47;37.33
22755;BME280;11544;42.020;23.094;2023-02-20T10:25:18;97826.09;;;14.97;35.36
22755;BME280;11544;42.020;23.094;2023-02-20T10:38:49;97812.72;;;15.03;35.75
22755;BME280;11544;42.020;23.094;2023-02-20T10:44:40;97806.66;;;15.01;35.10
22755;BME280;11544;42.020;23.094;2023-02-20T10:47:32;97798.16;;;15.55;34.68
22755;BME280;11544;42.020;23.094;2023-02-20T10:50:31;97778.00;;;15.55;34.33
22755;BME280;11544;42.020;23.094;2023-02-20T10:56:33;97788.22;;;15.61;35.02
22755;BME280;11544;42.020;23.094;2023-02-20T10:59:08;97800.47;;;15.23;34.16
22755;BME280;11544;42.020;23.094;2023-02-20T11:01:56;97790.81;;;15.42;34.83
22755;BME280;11544;42.020;23.094;2023-02-20T11:04:36;97794.53;;;15.38;34.26
22755;BME280;11544;42.020;23.094;2023-02-20T11:07:31;97805.63;;;15.06;34.83
22755;BME280;11544;42.020;23.094;2023-02-20T11:10:00;97806.72;;;15.20;34.62
22755;BME280;11544;42.020;23.094;2023-02-20T11:12:38;97786.28;;;15.27;34.49
22755;BME280;11544;42.020;23.094;2023-02-20T11:15:12;97787.50;;;15.39;34.47
22755;BME280;11544;42.020;23.094;2023-02-20T11:31:04;97776.84;;;15.42;35.29
22755;BME280;11544;42.020;23.094;2023-02-20T11:33:35;97786.69;;;15.18;35.15
22755;BME280;11544;42.020;23.094;2023-02-20T11:36:20;97773.63;;;15.16;34.99
22755;BME280;11544;42.020;23.094;2023-02-20T11:39:02;97774.41;;;15.37;35.33
22755;BME280;11544;42.020;23.094;2023-02-20T11:42:11;97771.78;;;15.18;34.96
22755;BME280;11544;42.020;23.094;2023-02-20T11:44:41;97763.66;;;15.43;34.41
22755;BME280;11544;42.020;23.094;2023-02-20T11:47:26;97765.28;;;15.84;34.38
22755;BME280;11544;42.020;23.094;2023-02-20T11:50:17;97765.13;;;15.49;34.37
22755;BME280;11544;42.020;23.094;2023-02-20T11:53:00;97769.84;;;15.61;34.35
22755;BME280;11544;42.020;23.094;2023-02-20T11:55:33;97781.97;;;15.26;34.12
22755;BME280;11544;42.020;23.094;2023-02-20T11:58:01;97762.03;;;15.79;34.45
22755;BME280;11544;42.020;23.094;2023-02-20T12:03:34;97781.78;;;15.10;34.81
22755;BME280;11544;42.020;23.094;2023-02-20T12:06:44;97777.13;;;15.17;35.00
22755;BME280;11544;42.020;23.094;2023-02-20T12:09:26;97779.13;;;15.31;34.33
22755;BME280;11544;42.020;23.094;2023-02-20T12:12:01;97771.88;;;15.55;33.84
22755;BME280;11544;42.020;23.094;2023-02-20T12:14:30;97756.94;;;15.76;33.66
22755;BME280;11544;42.020;23.094;2023-02-20T12:17:14;97760.50;;;15.54;33.72
22755;BME280;11544;42.020;23.094;2023-02-20T12:20:18;97740.94;;;15.80;33.83
22755;BME280;11544;42.020;23.094;2023-02-20T12:26:39;97743.63;;;15.79;33.19
22755;BME280;11544;42.020;23.094;2023-02-20T12:30:02;97747.59;;;15.69;33.99
22755;BME280;11544;42.020;23.094;2023-02-20T12:32:53;97736.03;;;15.73;33.98
22755;BME280;11544;42.020;23.094;2023-02-20T12:35:33;97726.56;;;15.69;34.07
22755;BME280;11544;42.020;23.094;2023-02-20T12:43:54;97730.84;;;14.95;35.29
22755;BME280;11544;42.020;23.094;2023-02-20T12:47:01;97734.31;;;15.15;34.21
22755;BME280;11544;42.020;23.094;2023-02-20T12:52:35;97745.41;;;14.82;34.91
22755;BME280;11544;42.020;23.094;2023-02-20T12:58:20;97750.84;;;14.77;35.22
22755;BME280;11544;42.020;23.094;2023-02-20T13:00:54;97753.53;;;14.76;35.91
22755;BME280;11544;42.020;23.094;2023-02-20T13:03:47;97743.38;;;14.68;35.40
22755;BME280;11544;42.020;23.094;2023-02-20T13:06:45;97739.53;;;14.56;35.57
22755;BME280;11544;42.020;23.094;2023-02-20T13:12:12;97749.09;;;14.57;35.69
22755;BME280;11544;42.020;23.094;2023-02-20T13:14:52;97737.91;;;14.52;35.89
22755;BME280;11544;42.020;23.094;2023-02-20T13:17:40;97734.91;;;14.61;35.14
22755;BME280;11544;42.020;23.094;2023-02-20T13:23:43;97733.72;;;14.28;36.21
22755;BME280;11544;42.020;23.094;2023-02-20T13:28:53;97728.56;;;14.04;36.31
22755;BME280;11544;42.020;23.094;2023-02-20T13:31:22;97722.63;;;14.21;36.66
22755;BME280;11544;42.020;23.094;2023-02-20T13:36:43;97729.38;;;14.47;36.37
22755;BME280;11544;42.020;23.094;2023-02-20T13:40:02;97726.56;;;14.31;36.05
22755;BME280;11544;42.020;23.094;2023-02-20T13:42:32;97737.50;;;14.21;36.54
22755;BME280;11544;42.020;23.094;2023-02-20T13:56:42;97743.72;;;14.18;37.06
22755;BME280;11544;42.020;23.094;2023-02-20T13:59:43;97746.34;;;14.18;36.48
22755;BME280;11544;42.020;23.094;2023-02-20T14:02:14;97737.84;;;14.33;37.09
22755;BME280;11544;42.020;23.094;2023-02-20T14:05:01;97745.50;;;14.17;36.95
22755;BME280;11544;42.020;23.094;2023-02-20T14:07:44;97745.50;;;13.95;37.46
22755;BME280;11544;42.020;23.094;2023-02-20T14:10:33;97740.69;;;14.07;37.14
22755;BME280;11544;42.020;23.094;2023-02-20T14:13:01;97738.75;;;13.90;37.39
22755;BME280;11544;42.020;23.094;2023-02-20T14:15:47;97741.25;;;13.93;37.27
22755;BME280;11544;42.020;23.094;2023-02-20T14:21:15;97746.81;;;13.85;37.89
22755;BME280;11544;42.020;23.094;2023-02-20T14:23:53;97755.44;;;13.65;38.58
22755;BME280;11544;42.020;23.094;2023-02-20T14:26:29;97743.97;;;13.46;38.22
22755;BME280;11544;42.020;23.094;2023-02-20T14:28:58;97747.00;;;13.59;38.39
22755;BME280;11544;42.020;23.094;2023-02-20T14:31:34;97734.38;;;13.68;38.17
22755;BME280;11544;42.020;23.094;2023-02-20T14:34:13;97742.28;;;13.89;37.93
22755;BME280;11544;42.020;23.094;2023-02-20T14:37:35;97743.16;;;13.89;37.58
22755;BME280;11544;42.020;23.094;2023-02-20T14:43:07;97745.59;;;13.72;37.43
22755;BME280;11544;42.020;23.094;2023-02-20T14:45:39;97740.97;;;13.79;37.69
22755;BME280;11544;42.020;23.094;2023-02-20T14:48:25;97748.16;;;13.73;37.92
22755;BME280;11544;42.020;23.094;2023-02-20T14:51:12;97740.41;;;13.70;37.57
22755;BME280;11544;42.020;23.094;2023-02-20T14:53:42;97740.41;;;13.70;37.89
22755;BME280;11544;42.020;23.094;2023-02-20T14:56:15;97736.81;;;13.73;38.33
22755;BME280;11544;42.020;23.094;2023-02-20T14:58:44;97740.97;;;13.79;37.95
22755;BME280;11544;42.020;23.094;2023-02-20T15:04:10;97756.50;;;13.61;38.13
22755;BME280;11544;42.020;23.094;2023-02-20T15:06:39;97763.38;;;13.42;39.13
22755;BME280;11544;42.020;23.094;2023-02-20T15:09:08;97758.31;;;13.37;39.22
22755;BME280;11544;42.020;23.094;2023-02-20T15:11:53;97749.16;;;13.24;39.70
22755;BME280;11544;42.020;23.094;2023-02-20T15:14:28;97742.63;;;13.12;39.45
22755;BME280;11544;42.020;23.094;2023-02-20T15:17:21;97738.19;;;13.14;39.37
22755;BME280;11544;42.020;23.094;2023-02-20T15:19:58;97731.22;;;13.13;39.79
22755;BME280;11544;42.020;23.094;2023-02-20T15:22:31;97736.03;;;13.02;39.92
22755;BME280;11544;42.020;23.094;2023-02-20T15:28:03;97751.59;;;12.81;40.30
22755;BME280;11544;42.020;23.094;2023-02-20T15:30:31;97759.44;;;12.81;40.70
22755;BME280;11544;42.020;23.094;2023-02-20T15:33:25;97765.69;;;12.77;40.56
22755;BME280;11544;42.020;23.094;2023-02-20T15:36:19;97770.06;;;12.77;40.63
22755;BME280;11544;42.020;23.094;2023-02-20T15:39:03;97764.19;;;12.70;40.91
22755;BME280;11544;42.020;23.094;2023-02-20T15:41:41;97766.16;;;12.63;41.17
22755;BME280;11544;42.020;23.094;2023-02-20T15:52:17;97764.00;;;12.49;41.92
22755;BME280;11544;42.020;23.094;2023-02-20T15:54:53;97775.34;;;12.50;41.63
22755;BME280;11544;42.020;23.094;2023-02-20T15:57:21;97785.31;;;12.39;41.93
22755;BME280;11544;42.020;23.094;2023-02-20T15:59:49;97799.53;;;12.30;41.98
22755;BME280;11544;42.020;23.094;2023-02-20T16:02:25;97797.72;;;12.32;42.17
22755;BME280;11544;42.020;23.094;2023-02-20T16:05:02;97797.59;;;12.10;42.23
22755;BME280;11544;42.020;23.094;2023-02-20T16:18:19;97808.19;;;12.05;42.82
22755;BME280;11544;42.020;23.094;2023-02-20T16:34:32;97819.88;;;11.64;43.88
22755;BME280;11544;42.020;23.094;2023-02-20T16:37:00;97814.41;;;11.43;44.21
22755;BME280;11544;42.020;23.094;2023-02-20T16:39:27;97828.41;;;11.41;44.51
22755;BME280;11544;42.020;23.094;2023-02-20T16:42:00;97829.56;;;11.60;44.47
22755;BME280;11544;42.020;23.094;2023-02-20T16:50:22;97854.06;;;11.55;44.22
22755;BME280;11544;42.020;23.094;2023-02-20T17:06:19;97853.84;;;10.67;47.68
22755;BME280;11544;42.020;23.094;2023-02-20T17:45:31;97875.50;;;9.96;48.79
22755;BME280;11544;42.020;23.094;2023-02-20T18:23:39;97871.16;;;8.64;53.57
22755;BME280;11544;42.020;23.094;2023-02-20T18:26:11;97871.50;;;8.96;52.71
22755;BME280;11544;42.020;23.094;2023-02-20T19:04:48;97883.25;;;8.11;56.07
22755;BME280;11544;42.020;23.094;2023-02-20T19:07:16;97882.19;;;8.24;55.47
22755;BME280;11544;42.020;23.094;2023-02-20T19:09:43;97869.59;;;8.54;55.05
22755;BME280;11544;42.020;23.094;2023-02-20T19:12:12;97864.66;;;8.37;54.53
22755;BME280;11544;42.020;23.094;2023-02-20T19:14:40;97881.44;;;8.16;54.99
22755;BME280;11544;42.020;23.094;2023-02-20T19:17:08;97884.09;;;8.12;55.60
22755;BME280;11544;42.020;23.094;2023-02-20T19:19:35;97890.09;;;7.53;57.03
22755;BME280;11544;42.020;23.094;2023-02-20T19:22:02;97891.88;;;7.50;57.74
22755;BME280;11544;42.020;23.094;2023-02-20T19:24:48;97897.53;;;7.79;57.23
22755;BME280;11544;42.020;23.094;2023-02-20T19:27:15;97899.44;;;7.68;57.09
22755;BME280;11544;42.020;23.094;2023-02-20T19:29:42;97894.06;;;7.80;56.98
22755;BME280;11544;42.020;23.094;2023-02-20T19:32:11;97893.84;;;7.97;56.55
22755;BME280;11544;42.020;23.094;2023-02-20T19:34:38;97892.63;;;7.58;56.87
22755;BME280;11544;42.020;23.094;2023-02-20T19:37:05;97891.25;;;7.96;57.08
22755;BME280;11544;42.020;23.094;2023-02-20T19:39:32;97892.56;;;7.62;57.69
22755;BME280;11544;42.020;23.094;2023-02-20T19:42:00;97898.72;;;7.55;57.30
22755;BME280;11544;42.020;23.094;2023-02-20T19:44:27;97896.94;;;7.59;57.74
22755;BME280;11544;42.020;23.094;2023-02-20T19:46:54;97891.88;;;7.48;57.63